Airfield :







YOU CAN JOIN US ON...

 
LOGIN :

Register | Disclaimer

   EN    FR    IT 

 









Legend :    VFR   Marginal VFR   IFR   Intensive IFR   Very Intensive IFR
Visi :
Ceiling :
>= 8 km
>= 3000ft
5 to 8 km
1000 to 3000 ft
1500m to 5 km
500 to 1000 ft
800 to 1500m
200 to 500 ft
< 800m
< 200 ft
Symbols :   Thunderstorms  Fog  Heavy snow  Heavy precipitations  Wind > 20 kt






- Airport Elevation : 100 ft
- IATA code : PSM


KPSM - Portsmouth International at Pease

CURRENT METAR :
  • 040315Z 03014G21KT 7SM -RA FEW008 OVC015 07/05 A2991 RMK AO2A RAE07B15 SLP132

EXPIRED METARs :
  • 040307Z 04011G20KT 7SM FEW008 BKN014 OVC020 07/05 A2991 RMK AO2A RAE07 SLP132
  • 040219Z 04013G23KT 5SM -RA BR SCT008 BKN012 OVC020 07/06 A2990 RMK AO2A SLP128
  • 040156Z 04013G23KT 3SM -RA BR BKN008 OVC013 07/06 A2989 RMK AO2A SLP125 P0001 T00700058
  • 040056Z 03014G21KT 3SM -RA BR BKN009 OVC015 07/06 A2986 RMK AO2A SLP115 P0002 T00740063
  • 040033Z 03011G15KT 3SM -RA BR BKN008 OVC013 08/07 A2986 RMK AO2A SLP115

TAF KPSM
Valid from the 04 at 00:00 until the 05 at 00:00 UTC


032332Z 0400/0424 03012G22KT 2SM -RA BR OVC006
FM040400 02012G22KT 4SM -SHRA BR OVC008
FM041100 04010G18KT P6SM OVC015
FM041800 09008KT P6SM BKN025



MET'MAP, your aeronautical weather chart ! - Copyright ORBIFLY December 2007 - Disclaimer

ORBIFLY MET'MAP TEAM :

Programming & Development : Alexandra Zaïnal
Concept & original design : Baudouin d'Aumeries
Assistance for programming : Marc-Olivier Méhu
Technical & hardware support : Manuel Goepfert

Contact : metmap@orbifly.com




SOURCES & CREDITS :

   NOAA